首页
METAR-TAF:

METAR-TAF

机场 :

Aitkin Municipal Airport (Steve Kurtz Field)

Aitkin, 明尼蘇達州, 美国

纬度: 46-33N, 经度: 093-41W, 海拔: 367米

当前天气观测

该预报发布于10分钟前的20:56 UTC
风速11节,风向,有时为16节阵风
温度 11°C
湿度 25%
气压 1009 hPa
能見度: 16.1公里
天空无云

METAR: KAIT 292056Z AUTO 35011G16KT 10SM CLR 11/M08 A2981 RMK AO2

时间: 16:06 (21:06 UTC)


TAF: 丢失

超过4000个机场的气象观测和天气预报(METAR&TAF报告)。

可查询的气象台以黄色和红色小点在地图上表示。

将鼠标移到小点上方,可查看气象台名称。

然后点击查看天气观测和预报。

如需切换地图:点击带黑十字的绿色按钮放大地图;点击带横线的绿色按钮缩小地图;或者点击绿色箭头查看邻近地区的地图。


METAR-TAF: